createdAt,value
2018-07-20T00:00:49.014Z,32.3
2018-07-20T00:01:39.637Z,32.3
2018-07-20T00:02:29.732Z,32.3
2018-07-20T00:03:19.483Z,32.3
2018-07-20T00:04:09.557Z,32.3
2018-07-20T00:04:59.891Z,32.3
2018-07-20T00:05:49.933Z,32.3
2018-07-20T00:06:40.024Z,32.3
2018-07-20T00:07:30.073Z,32.3
2018-07-20T00:08:19.619Z,32.3
2018-07-20T00:09:09.981Z,32.3
2018-07-20T00:10:00.008Z,32.3
2018-07-20T00:10:49.556Z,32.3
2018-07-20T00:11:40.383Z,32.3
2018-07-20T00:12:30.453Z,32.3
2018-07-20T00:13:19.777Z,32.3
2018-07-20T00:14:10.117Z,32.3
2018-07-20T00:14:59.917Z,32.3
2018-07-20T00:15:49.938Z,32.3
2018-07-20T00:16:40.229Z,32.3
2018-07-20T00:17:30.083Z,32.3
2018-07-20T00:18:20.428Z,32.3
2018-07-20T00:19:09.927Z,32.3
2018-07-20T00:20:00.756Z,32.3
2018-07-20T00:20:51.182Z,32.3
2018-07-20T00:21:40.146Z,32.3
2018-07-20T00:22:30.975Z,32.3
2018-07-20T00:23:21.016Z,32.3
2018-07-20T00:24:10.217Z,32.3
2018-07-20T00:25:01.188Z,32.3
2018-07-20T00:25:51.481Z,32.3
2018-07-20T00:26:41.571Z,32.3
2018-07-20T00:27:31.349Z,32.3
2018-07-20T00:28:21.421Z,32.3
2018-07-20T00:29:11.534Z,32.3
2018-07-20T00:30:01.531Z,32.3
2018-07-20T00:30:51.894Z,32.3
2018-07-20T00:31:41.091Z,32.3
2018-07-20T00:32:31.444Z,32.3
2018-07-20T00:33:21.495Z,32.3
2018-07-20T00:34:11.887Z,32.3
2018-07-20T00:35:01.642Z,32.2
2018-07-20T00:35:52.292Z,32.3
2018-07-20T00:36:41.790Z,32.2
2018-07-20T00:37:32.134Z,32.2
2018-07-20T00:38:22.206Z,32.3
2018-07-20T00:39:12.510Z,32.3
2018-07-20T00:40:02.302Z,32.2
2018-07-20T00:40:51.799Z,32.3
2018-07-20T00:41:42.133Z,32.2
2018-07-20T00:42:32.009Z,32.2
2018-07-20T00:43:22.059Z,32.2
2018-07-20T00:44:11.864Z,32.2
2018-07-20T00:45:02.206Z,32.3
2018-07-20T00:45:52.263Z,32.2
2018-07-20T00:46:42.599Z,32.2
2018-07-20T00:47:32.350Z,32.2
2018-07-20T00:48:22.172Z,32.2
2018-07-20T00:49:13.263Z,32.2
2018-07-20T00:50:03.334Z,32.2
2018-07-20T00:50:53.375Z,32.2
2018-07-20T00:51:43.171Z,32.2
2018-07-20T00:52:33.227Z,32.2
2018-07-20T00:53:23.324Z,32.2
2018-07-20T00:54:13.374Z,32.2
2018-07-20T00:55:03.137Z,32.2
2018-07-20T00:55:53.502Z,32.2
2018-07-20T00:56:43.829Z,32.2
2018-07-20T00:57:33.082Z,32.2
2018-07-20T00:58:23.439Z,32.2
2018-07-20T00:59:13.830Z,32.2
2018-07-20T01:00:02.993Z,32.1
2018-07-20T01:00:53.893Z,32.2
2018-07-20T01:01:43.440Z,32.2
2018-07-20T01:02:33.773Z,32.2
2018-07-20T01:03:23.335Z,32.1
2018-07-20T01:04:13.954Z,32.2
2018-07-20T01:05:04.058Z,32.1
2018-07-20T01:05:53.587Z,32.1
2018-07-20T01:06:44.120Z,32.1
2018-07-20T01:07:34.186Z,32.1
2018-07-20T01:08:24.236Z,32.1
2018-07-20T01:09:14.308Z,32.1
2018-07-20T01:10:04.031Z,32.2
2018-07-20T01:10:54.449Z,32.1
2018-07-20T01:11:44.499Z,32.1
2018-07-20T01:12:35.046Z,32.1
2018-07-20T01:13:24.107Z,32.1
2018-07-20T01:14:14.396Z,32.1
2018-07-20T01:15:05.272Z,32.1
2018-07-20T01:15:54.849Z,32.1
2018-07-20T01:16:44.886Z,32.1
2018-07-20T01:17:34.670Z,32.1
2018-07-20T01:18:25.012Z,32.1
2018-07-20T01:19:14.815Z,32.1
2018-07-20T01:20:05.161Z,32.1
2018-07-20T01:20:55.192Z,32.1
2018-07-20T01:21:45.241Z,32.1
2018-07-20T01:22:35.527Z,32.1
2018-07-20T01:23:25.895Z,32.1
2018-07-20T01:24:15.682Z,32.1
2018-07-20T01:25:05.717Z,32.1
2018-07-20T01:25:55.782Z,32.1
2018-07-20T01:26:45.884Z,32.1
2018-07-20T01:27:35.607Z,32.1
2018-07-20T01:28:26.239Z,32.1
2018-07-20T01:29:15.738Z,32.1
2018-07-20T01:30:06.473Z,32.1
2018-07-20T01:30:56.419Z,32.1
2018-07-20T01:31:46.182Z,32.1
2018-07-20T01:32:36.574Z,32.1
2018-07-20T01:33:26.617Z,32.1
2018-07-20T01:34:16.137Z,32.1
2018-07-20T01:35:06.500Z,32.1
2018-07-20T01:35:56.269Z,32.1
2018-07-20T01:36:46.421Z,32.1
2018-07-20T01:37:36.172Z,32.1
2018-07-20T01:38:26.266Z,32.1
2018-07-20T01:39:16.332Z,32.1
2018-07-20T01:40:06.387Z,32.1
2018-07-20T01:40:56.641Z,32.1
2018-07-20T01:41:47.311Z,32.1
2018-07-20T01:42:37.341Z,32.1
2018-07-20T01:43:26.814Z,32.1
2018-07-20T01:44:16.341Z,32.1
2018-07-20T01:45:07.235Z,32.1
2018-07-20T01:45:57.668Z,32.1
2018-07-20T01:46:47.393Z,32.1
2018-07-20T01:47:37.452Z,32
2018-07-20T01:48:27.233Z,32.1
2018-07-20T01:49:17.571Z,32.1
2018-07-20T01:50:07.888Z,32.1
2018-07-20T01:50:57.703Z,32.1
2018-07-20T01:51:48.013Z,32.1
2018-07-20T01:52:37.798Z,32.1
2018-07-20T01:53:27.616Z,32.1
2018-07-20T01:54:18.228Z,32
2018-07-20T01:55:08.013Z,32.1
2018-07-20T01:55:57.797Z,32
2018-07-20T01:56:48.409Z,32
2018-07-20T01:57:37.915Z,32.1
2018-07-20T01:58:28.550Z,32
2018-07-20T01:59:18.568Z,32
2018-07-20T02:00:07.898Z,32
2018-07-20T02:00:57.418Z,32
2018-07-20T02:01:48.504Z,32
2018-07-20T02:02:38.830Z,32
2018-07-20T02:03:28.144Z,32
2018-07-20T02:04:18.508Z,32
2018-07-20T02:05:08.605Z,32
2018-07-20T02:05:58.619Z,32
2018-07-20T02:06:48.941Z,32
2018-07-20T02:07:39.227Z,32
2018-07-20T02:08:28.535Z,32
2018-07-20T02:09:18.592Z,32
2018-07-20T02:10:09.159Z,32
2018-07-20T02:10:59.035Z,32
2018-07-20T02:11:48.812Z,32
2018-07-20T02:12:39.150Z,32
2018-07-20T02:13:28.935Z,32
2018-07-20T02:14:19.276Z,32
2018-07-20T02:15:09.073Z,32
2018-07-20T02:15:59.410Z,31.9
2018-07-20T02:16:48.920Z,32
2018-07-20T02:17:38.961Z,31.9
2018-07-20T02:18:29.357Z,32
2018-07-20T02:19:19.599Z,32
2018-07-20T02:20:10.219Z,32
2018-07-20T02:21:00.273Z,32
2018-07-20T02:21:49.788Z,31.9
2018-07-20T02:22:39.855Z,32
2018-07-20T02:23:30.495Z,31.9
2018-07-20T02:24:20.232Z,31.9
2018-07-20T02:25:10.329Z,31.9
2018-07-20T02:26:00.665Z,31.9
2018-07-20T02:26:50.747Z,31.9
2018-07-20T02:27:40.480Z,31.9
2018-07-20T02:28:30.520Z,31.9
2018-07-20T02:29:20.692Z,31.9
2018-07-20T02:30:10.985Z,31.9
2018-07-20T02:31:01.072Z,31.9
2018-07-20T02:31:50.530Z,31.9
2018-07-20T02:32:40.907Z,31.9
2018-07-20T02:33:30.427Z,31.9
2018-07-20T02:34:20.717Z,31.9
2018-07-20T02:35:10.782Z,31.9
2018-07-20T02:36:01.155Z,31.9
2018-07-20T02:36:51.180Z,31.9
2018-07-20T02:37:40.967Z,31.9
2018-07-20T02:38:31.574Z,31.9
2018-07-20T02:39:21.692Z,31.9
2018-07-20T02:40:11.732Z,31.9
2018-07-20T02:41:01.231Z,31.9
2018-07-20T02:41:50.798Z,31.9
2018-07-20T02:42:41.202Z,31.9
2018-07-20T02:43:31.200Z,31.9
2018-07-20T02:44:21.576Z,31.9
2018-07-20T02:45:11.389Z,31.9
2018-07-20T02:46:01.706Z,31.9
2018-07-20T02:46:51.185Z,31.9
2018-07-20T02:47:41.272Z,31.9
2018-07-20T02:48:31.326Z,31.9
2018-07-20T02:49:21.399Z,31.9
2018-07-20T02:50:12.023Z,31.9
2018-07-20T02:51:02.279Z,31.9
2018-07-20T02:51:51.794Z,31.9
2018-07-20T02:52:42.412Z,31.9
2018-07-20T02:53:32.471Z,31.9
2018-07-20T02:54:22.817Z,31.9
2018-07-20T02:55:12.622Z,31.9
2018-07-20T02:56:02.095Z,31.9
2018-07-20T02:56:52.244Z,31.9
2018-07-20T02:57:42.814Z,31.9
2018-07-20T02:58:32.367Z,31.9
2018-07-20T02:59:22.457Z,31.9
2018-07-20T03:00:12.532Z,31.9
2018-07-20T03:01:02.842Z,31.9
2018-07-20T03:01:52.394Z,31.9
2018-07-20T03:02:42.983Z,31.9
2018-07-20T03:03:32.208Z,31.9
2018-07-20T03:04:22.533Z,31.9
2018-07-20T03:05:12.872Z,31.9
2018-07-20T03:06:03.221Z,31.9
2018-07-20T03:06:52.704Z,31.9
2018-07-20T03:07:42.784Z,31.9
2018-07-20T03:08:33.873Z,31.8
2018-07-20T03:09:22.935Z,31.8
2018-07-20T03:10:13.177Z,31.9
2018-07-20T03:11:03.818Z,31.9
2018-07-20T03:11:53.095Z,31.8
2018-07-20T03:12:44.207Z,31.8
2018-07-20T03:13:34.271Z,31.8
2018-07-20T03:14:24.098Z,31.8
2018-07-20T03:15:13.947Z,31.8
2018-07-20T03:16:03.631Z,31.8
2018-07-20T03:16:54.534Z,31.8
2018-07-20T03:17:44.608Z,31.8
2018-07-20T03:18:34.355Z,31.8
2018-07-20T03:19:24.733Z,31.8
2018-07-20T03:20:14.487Z,31.8
2018-07-20T03:21:05.785Z,31.8
2018-07-20T03:21:54.351Z,31.8
2018-07-20T03:22:44.150Z,31.8
2018-07-20T03:23:35.057Z,31.8
2018-07-20T03:24:25.119Z,31.8
2018-07-20T03:26:04.779Z,31.8
2018-07-20T03:26:53.965Z,31.8
2018-07-20T03:27:44.863Z,31.8
2018-07-20T03:28:34.644Z,31.8
2018-07-20T03:29:25.239Z,31.8
2018-07-20T03:30:15.006Z,31.8
2018-07-20T03:31:05.110Z,31.8
2018-07-20T03:31:55.679Z,31.8
2018-07-20T03:32:46.021Z,31.8
2018-07-20T03:33:35.304Z,31.8
2018-07-20T03:34:25.325Z,31.8
2018-07-20T03:35:15.939Z,31.8
2018-07-20T03:36:05.967Z,31.8
2018-07-20T03:36:54.950Z,31.8
2018-07-20T03:37:45.655Z,31.8
2018-07-20T03:38:35.386Z,31.8
2018-07-20T03:39:25.928Z,31.8
2018-07-20T03:40:15.761Z,31.8
2018-07-20T03:41:05.827Z,31.8
2018-07-20T03:41:55.375Z,31.8
2018-07-20T03:42:45.735Z,31.8
2018-07-20T03:43:36.055Z,31.8
2018-07-20T03:44:25.833Z,31.8
2018-07-20T03:45:16.215Z,31.8
2018-07-20T03:46:06.003Z,31.8
2018-07-20T03:46:56.339Z,31.8
2018-07-20T03:47:46.144Z,31.8
2018-07-20T03:48:36.672Z,31.8
2018-07-20T03:49:25.397Z,31.8
2018-07-20T03:50:16.782Z,31.8
2018-07-20T03:51:06.823Z,31.8
2018-07-20T03:51:56.923Z,31.8
2018-07-20T03:52:46.701Z,31.8
2018-07-20T03:53:37.097Z,31.8
2018-07-20T03:54:27.192Z,31.8
2018-07-20T03:55:17.508Z,31.8
2018-07-20T03:56:07.544Z,31.7
2018-07-20T03:56:57.275Z,31.8
2018-07-20T03:57:47.627Z,31.8
2018-07-20T03:58:37.415Z,31.8
2018-07-20T03:59:27.783Z,31.7
2018-07-20T04:00:17.825Z,31.8
2018-07-20T04:01:07.667Z,31.8
2018-07-20T04:01:58.100Z,31.7
2018-07-20T04:02:47.443Z,31.7
2018-07-20T04:03:38.106Z,31.7
2018-07-20T04:04:28.106Z,31.8
2018-07-20T04:05:18.194Z,31.7
2018-07-20T04:06:08.298Z,31.7
2018-07-20T04:06:58.062Z,31.7
2018-07-20T04:07:48.442Z,31.7
2018-07-20T04:08:38.493Z,31.7
2018-07-20T04:09:28.244Z,31.7
2018-07-20T04:10:18.647Z,31.7
2018-07-20T04:11:08.651Z,31.7
2018-07-20T04:11:58.690Z,31.7
2018-07-20T04:12:48.759Z,31.7
2018-07-20T04:13:38.784Z,31.7
2018-07-20T04:14:28.887Z,31.7
2018-07-20T04:15:18.923Z,31.7
2018-07-20T04:16:09.077Z,31.7
2018-07-20T04:16:59.052Z,31.7
2018-07-20T04:17:48.632Z,31.7
2018-07-20T04:18:38.938Z,31.7
2018-07-20T04:19:29.289Z,31.7
2018-07-20T04:20:19.343Z,31.7
2018-07-20T04:21:09.459Z,31.7
2018-07-20T04:21:58.939Z,31.7
2018-07-20T04:22:49.269Z,31.7
2018-07-20T04:23:39.323Z,31.7
2018-07-20T04:24:29.653Z,31.7
2018-07-20T04:25:19.738Z,31.7
2018-07-20T04:26:09.041Z,31.7
2018-07-20T04:26:59.291Z,31.7
2018-07-20T04:27:49.351Z,31.6
2018-07-20T04:28:39.409Z,31.6
2018-07-20T04:29:29.801Z,31.6
2018-07-20T04:30:19.791Z,31.6
2018-07-20T04:31:10.239Z,31.6
2018-07-20T04:31:59.653Z,31.6
2018-07-20T04:32:50.304Z,31.6
2018-07-20T04:33:40.346Z,31.6
2018-07-20T04:34:29.917Z,31.6
2018-07-20T04:35:20.503Z,31.6
2018-07-20T04:36:10.247Z,31.6
2018-07-20T04:37:00.608Z,31.6
2018-07-20T04:37:50.649Z,31.6
2018-07-20T04:38:40.430Z,31.6
2018-07-20T04:39:30.509Z,31.6
2018-07-20T04:40:20.565Z,31.6
2018-07-20T04:41:09.797Z,31.6
2018-07-20T04:42:00.956Z,31.6
2018-07-20T04:42:51.015Z,31.6
2018-07-20T04:43:41.101Z,31.6
2018-07-20T04:44:31.149Z,31.6
2018-07-20T04:45:20.969Z,31.6
2018-07-20T04:46:11.333Z,31.6
2018-07-20T04:47:01.339Z,31.6
2018-07-20T04:47:51.424Z,31.6
2018-07-20T04:48:41.500Z,31.6
2018-07-20T04:49:31.284Z,31.6
2018-07-20T04:50:21.600Z,31.6
2018-07-20T04:51:11.410Z,31.6
2018-07-20T04:52:00.625Z,31.6
2018-07-20T04:52:51.530Z,31.6
2018-07-20T04:53:41.324Z,31.6
2018-07-20T04:54:31.678Z,31.6
2018-07-20T04:55:21.161Z,31.6
2018-07-20T04:56:11.826Z,31.6
2018-07-20T04:57:00.539Z,31.6
2018-07-20T04:57:51.634Z,31.6
2018-07-20T04:58:41.514Z,31.6
2018-07-20T04:59:32.325Z,31.6
2018-07-20T05:00:22.127Z,31.6
2018-07-20T05:01:12.496Z,31.6
2018-07-20T05:02:02.255Z,31.6
2018-07-20T05:02:52.021Z,31.6
2018-07-20T05:03:42.346Z,31.6
2018-07-20T05:04:32.706Z,31.6
2018-07-20T05:05:22.226Z,31.6
2018-07-20T05:06:12.878Z,31.6
2018-07-20T05:07:02.956Z,31.6
2018-07-20T05:07:52.673Z,31.6
2018-07-20T05:08:43.163Z,31.6
2018-07-20T05:09:33.075Z,31.6
2018-07-20T05:10:22.884Z,31.6
2018-07-20T05:11:12.914Z,31.6
2018-07-20T05:12:03.268Z,31.6
2018-07-20T05:12:53.045Z,31.6
2018-07-20T05:13:43.413Z,31.6
2018-07-20T05:14:33.450Z,31.6
2018-07-20T05:15:22.950Z,31.5
2018-07-20T05:16:13.568Z,31.6
2018-07-20T05:17:03.648Z,31.6
2018-07-20T05:17:53.713Z,31.6
2018-07-20T05:18:43.224Z,31.6
2018-07-20T05:19:32.787Z,31.6
2018-07-20T05:20:23.177Z,31.6
2018-07-20T05:21:13.990Z,31.5
2018-07-20T05:22:03.712Z,31.6
2018-07-20T05:22:53.506Z,31.5
2018-07-20T05:23:43.889Z,31.5
2018-07-20T05:24:34.206Z,31.5
2018-07-20T05:25:24.015Z,31.5
2018-07-20T05:26:14.067Z,31.5
2018-07-20T05:27:04.414Z,31.5
2018-07-20T05:27:54.504Z,31.5
2018-07-20T05:28:44.265Z,31.5
2018-07-20T05:29:34.634Z,31.5
2018-07-20T05:30:24.091Z,31.5
2018-07-20T05:31:14.716Z,31.5
2018-07-20T05:32:04.537Z,31.5
2018-07-20T05:32:54.652Z,31.5
2018-07-20T05:33:44.889Z,31.5
2018-07-20T05:34:34.509Z,31.5
2018-07-20T05:35:24.494Z,31.5
2018-07-20T05:36:14.548Z,31.5
2018-07-20T05:37:04.877Z,31.5
2018-07-20T05:37:54.941Z,31.5
2018-07-20T05:38:45.274Z,31.5
2018-07-20T05:39:35.078Z,31.5
2018-07-20T05:40:25.461Z,31.5
2018-07-20T05:41:15.190Z,31.5
2018-07-20T05:42:05.289Z,31.5
2018-07-20T05:42:55.619Z,31.5
2018-07-20T05:43:44.857Z,31.5
2018-07-20T05:44:35.209Z,31.5
2018-07-20T05:45:25.278Z,31.5
2018-07-20T05:46:15.156Z,31.4
2018-07-20T05:47:05.916Z,31.5
2018-07-20T05:47:55.431Z,31.4
2018-07-20T05:48:45.827Z,31.4
2018-07-20T05:49:36.130Z,31.4
2018-07-20T05:50:25.377Z,31.4
2018-07-20T05:51:15.687Z,31.4
2018-07-20T05:52:06.335Z,31.4
2018-07-20T05:52:56.140Z,31.4
2018-07-20T05:53:45.870Z,31.4
2018-07-20T05:54:36.480Z,31.4
2018-07-20T05:55:26.545Z,31.4
2018-07-20T05:56:16.058Z,31.4
2018-07-20T05:57:06.678Z,31.4
2018-07-20T05:57:56.468Z,31.4
2018-07-20T05:58:46.808Z,31.4
2018-07-20T05:59:36.590Z,31.4
2018-07-20T06:00:26.677Z,31.4
2018-07-20T06:01:16.752Z,31.4
2018-07-20T06:02:07.048Z,31.4
2018-07-20T06:02:56.885Z,31.4
2018-07-20T06:03:46.925Z,31.4
2018-07-20T06:04:36.999Z,31.4
2018-07-20T06:05:27.671Z,31.4
2018-07-20T06:06:17.129Z,31.4
2018-07-20T06:07:06.929Z,31.4
2018-07-20T06:07:57.296Z,31.4
2018-07-20T06:08:47.086Z,31.4
2018-07-20T06:09:37.123Z,31.4
2018-07-20T06:10:27.188Z,31.4
2018-07-20T06:11:17.032Z,31.4
2018-07-20T06:12:07.870Z,31.4
2018-07-20T06:12:57.888Z,31.4
2018-07-20T06:13:47.428Z,31.4
2018-07-20T06:14:37.755Z,31.4
2018-07-20T06:15:27.820Z,31.4
2018-07-20T06:16:18.156Z,31.4
2018-07-20T06:17:07.985Z,31.4
2018-07-20T06:17:58.026Z,31.4
2018-07-20T06:18:48.080Z,31.4
2018-07-20T06:19:37.832Z,31.4
2018-07-20T06:20:28.532Z,31.4
2018-07-20T06:21:18.533Z,31.4
2018-07-20T06:22:08.438Z,31.4
2018-07-20T06:22:58.434Z,31.4
2018-07-20T06:23:48.761Z,31.4
2018-07-20T06:24:38.790Z,31.4
2018-07-20T06:25:28.852Z,31.4
2018-07-20T06:26:18.109Z,31.4
2018-07-20T06:27:09.009Z,31.4
2018-07-20T06:27:59.041Z,31.4
2018-07-20T06:28:48.561Z,31.4
2018-07-20T06:29:39.766Z,31.4
2018-07-20T06:30:29.269Z,31.4
2018-07-20T06:31:19.305Z,31.4
2018-07-20T06:32:09.366Z,31.4
2018-07-20T06:32:59.208Z,31.4
2018-07-20T06:33:48.931Z,31.4
2018-07-20T06:34:39.270Z,31.4
2018-07-20T06:35:29.030Z,31.4
2018-07-20T06:36:19.407Z,31.4
2018-07-20T06:37:09.490Z,31.4
2018-07-20T06:37:58.718Z,31.4
2018-07-20T06:38:49.602Z,31.4
2018-07-20T06:39:39.967Z,31.3
2018-07-20T06:40:29.994Z,31.3
2018-07-20T06:41:19.779Z,31.4
2018-07-20T06:42:09.609Z,31.3
2018-07-20T06:43:00.202Z,31.3
2018-07-20T06:43:50.025Z,31.3
2018-07-20T06:44:40.389Z,31.3
2018-07-20T06:45:30.111Z,31.3
2018-07-20T06:46:20.184Z,31.3
2018-07-20T06:47:10.232Z,31.3
2018-07-20T06:48:00.027Z,31.3
2018-07-20T06:48:50.093Z,31.3
2018-07-20T06:49:40.459Z,31.3
2018-07-20T06:50:30.497Z,31.3
2018-07-20T06:51:20.615Z,31.3
2018-07-20T06:52:10.921Z,31.3
2018-07-20T06:53:00.987Z,31.3
2018-07-20T06:53:51.053Z,31.3
2018-07-20T06:54:40.825Z,31.3
2018-07-20T06:55:30.878Z,31.3
2018-07-20T06:56:20.396Z,31.3
2018-07-20T06:57:11.042Z,31.3
2018-07-20T06:58:01.335Z,31.3
2018-07-20T06:58:51.488Z,31.3
2018-07-20T06:59:40.908Z,31.3
2018-07-20T07:00:30.399Z,31.3
2018-07-20T07:01:21.603Z,31.3
2018-07-20T07:02:11.401Z,31.3
2018-07-20T07:03:01.456Z,31.3
2018-07-20T07:03:51.796Z,31.3
2018-07-20T07:04:41.832Z,31.3
2018-07-20T07:05:31.353Z,31.3
2018-07-20T07:06:22.033Z,31.3
2018-07-20T07:07:11.508Z,31.3
2018-07-20T07:08:01.884Z,31.3
2018-07-20T07:08:51.641Z,31.3
2018-07-20T07:09:42.041Z,31.3
2018-07-20T07:10:32.301Z,31.3
2018-07-20T07:11:21.064Z,31.3
2018-07-20T07:12:11.868Z,31.3
2018-07-20T07:13:01.966Z,31.3
2018-07-20T07:13:52.290Z,31.3
2018-07-20T07:14:41.805Z,31.3
2018-07-20T07:15:32.441Z,31.3
2018-07-20T07:16:22.028Z,31.3
2018-07-20T07:17:12.848Z,31.3
2018-07-20T07:18:02.615Z,31.3
2018-07-20T07:18:53.015Z,31.3
2018-07-20T07:19:42.747Z,31.3
2018-07-20T07:20:33.076Z,31.3
2018-07-20T07:21:22.888Z,31.3
2018-07-20T07:22:13.439Z,31.3
2018-07-20T07:23:02.991Z,31.3
2018-07-20T07:23:53.364Z,31.3
2018-07-20T07:24:43.106Z,31.3
2018-07-20T07:25:33.163Z,31.3
2018-07-20T07:26:23.294Z,31.3
2018-07-20T07:27:13.032Z,31.3
2018-07-20T07:28:03.102Z,31.3
2018-07-20T07:28:53.441Z,31.3
2018-07-20T07:29:43.824Z,31.2
2018-07-20T07:30:33.272Z,31.3
2018-07-20T07:31:23.627Z,31.3
2018-07-20T07:32:13.985Z,31.3
2018-07-20T07:33:04.045Z,31.3
2018-07-20T07:33:54.072Z,31.2
2018-07-20T07:34:43.603Z,31.2
2018-07-20T07:35:33.962Z,31.3
2018-07-20T07:36:24.265Z,31.2
2018-07-20T07:37:14.351Z,31.2
2018-07-20T07:38:03.846Z,31.2
2018-07-20T07:38:54.213Z,31.3
2018-07-20T07:39:44.273Z,31.2
2018-07-20T07:40:34.321Z,31.2
2018-07-20T07:41:24.136Z,31.2
2018-07-20T07:42:15.192Z,31.2
2018-07-20T07:43:04.492Z,31.2
2018-07-20T07:43:54.320Z,31.2
2018-07-20T07:44:44.637Z,31.2
2018-07-20T07:45:34.671Z,31.2
2018-07-20T07:46:24.505Z,31.2
2018-07-20T07:47:15.110Z,31.2
2018-07-20T07:48:04.897Z,31.2
2018-07-20T07:48:55.176Z,31.2
2018-07-20T07:49:45.297Z,31.2
2018-07-20T07:50:35.075Z,31.2
2018-07-20T07:51:25.207Z,31.2
2018-07-20T07:52:15.464Z,31.2
2018-07-20T07:53:04.727Z,31.2
2018-07-20T07:53:55.350Z,31.2
2018-07-20T07:54:45.383Z,31.2
2018-07-20T07:55:35.785Z,31.2
2018-07-20T07:56:25.250Z,31.2
2018-07-20T07:57:15.916Z,31.2
2018-07-20T07:58:05.891Z,31.2
2018-07-20T07:58:55.792Z,31.2
2018-07-20T07:59:46.052Z,31.1
2018-07-20T08:00:36.134Z,31.1
2018-07-20T08:01:25.881Z,31.2
2018-07-20T08:02:16.250Z,31.2
2018-07-20T08:03:06.430Z,31.1
2018-07-20T08:03:56.079Z,31.1
2018-07-20T08:04:46.159Z,31.1
2018-07-20T08:05:36.488Z,31.1
2018-07-20T08:06:26.556Z,31.1
2018-07-20T08:07:16.606Z,31.1
2018-07-20T08:08:05.888Z,31.1
2018-07-20T08:08:56.299Z,31.1
2018-07-20T08:09:46.818Z,31.1
2018-07-20T08:10:36.613Z,31.1
2018-07-20T08:11:27.062Z,31.1
2018-07-20T08:12:16.173Z,31.1
2018-07-20T08:13:06.789Z,31.1
2018-07-20T08:13:56.651Z,31.1
2018-07-20T08:14:47.190Z,31.1
2018-07-20T08:15:36.705Z,31.1
2018-07-20T08:16:27.093Z,31.1
2018-07-20T08:17:17.445Z,31.1
2018-07-20T08:18:06.900Z,31.1
2018-07-20T08:18:57.258Z,31.1
2018-07-20T08:19:47.611Z,31.1
2018-07-20T08:20:37.121Z,31.1
2018-07-20T08:21:26.971Z,31.1
2018-07-20T08:22:17.792Z,31.1
2018-07-20T08:23:07.682Z,31.1
2018-07-20T08:23:57.892Z,31.1
2018-07-20T08:24:47.707Z,31.1
2018-07-20T08:25:37.720Z,31.1
2018-07-20T08:26:28.129Z,31.1
2018-07-20T08:27:18.130Z,31.1
2018-07-20T08:28:08.296Z,31.1
2018-07-20T08:28:58.221Z,31.1
2018-07-20T08:29:48.335Z,31.1
2018-07-20T08:30:38.408Z,31.1
2018-07-20T08:31:28.203Z,31.1
2018-07-20T08:32:18.520Z,31.1
2018-07-20T08:33:08.155Z,31.1
2018-07-20T08:33:58.638Z,31.1
2018-07-20T08:34:48.175Z,31.1
2018-07-20T08:35:38.563Z,31.1
2018-07-20T08:36:28.016Z,31.1
2018-07-20T08:37:18.598Z,31.1
2018-07-20T08:38:08.825Z,31.1
2018-07-20T08:38:58.624Z,31.1
2018-07-20T08:39:48.816Z,31.1
2018-07-20T08:40:39.231Z,31.1
2018-07-20T08:41:28.968Z,31.1
2018-07-20T08:42:19.055Z,31.1
2018-07-20T08:43:09.361Z,31.1
2018-07-20T08:43:59.138Z,31.1
2018-07-20T08:44:49.215Z,31.1
2018-07-20T08:45:39.573Z,31.1
2018-07-20T08:46:29.389Z,31.1
2018-07-20T08:47:19.723Z,31.1
2018-07-20T08:48:09.498Z,31.1
2018-07-20T08:48:59.826Z,31.1
2018-07-20T08:49:49.926Z,31.1
2018-07-20T08:50:39.666Z,31.1
2018-07-20T08:51:29.453Z,31.1
2018-07-20T08:52:19.521Z,31.1
2018-07-20T08:53:09.872Z,31.1
2018-07-20T08:54:00.628Z,31.1
2018-07-20T08:54:50.031Z,31.1
2018-07-20T08:55:40.065Z,31.1
2018-07-20T08:56:30.131Z,31.1
2018-07-20T08:57:19.969Z,31.1
2018-07-20T08:58:10.321Z,31.1
2018-07-20T08:59:00.485Z,31.1
2018-07-20T08:59:50.434Z,31.1
2018-07-20T09:00:40.722Z,31
2018-07-20T09:01:30.247Z,31
2018-07-20T09:02:21.079Z,31
2018-07-20T09:03:11.019Z,31
2018-07-20T09:04:00.417Z,31
2018-07-20T09:04:51.043Z,31
2018-07-20T09:05:40.808Z,31
2018-07-20T09:06:30.627Z,31
2018-07-20T09:07:20.730Z,31
2018-07-20T09:08:11.249Z,31
2018-07-20T09:09:01.353Z,31
2018-07-20T09:09:51.405Z,31
2018-07-20T09:10:41.179Z,31
2018-07-20T09:11:31.387Z,31
2018-07-20T09:12:21.342Z,31
2018-07-20T09:13:11.400Z,31
2018-07-20T09:14:01.584Z,31
2018-07-20T09:14:51.524Z,31
2018-07-20T09:15:41.331Z,31
2018-07-20T09:16:31.964Z,31
2018-07-20T09:17:21.687Z,31
2018-07-20T09:18:11.806Z,31
2018-07-20T09:19:01.877Z,31
2018-07-20T09:19:52.007Z,31
2018-07-20T09:20:43.463Z,31
2018-07-20T09:21:32.057Z,31
2018-07-20T09:22:21.866Z,31
2018-07-20T09:23:12.494Z,31
2018-07-20T09:24:02.249Z,31
2018-07-20T09:24:52.415Z,30.9
2018-07-20T09:25:42.142Z,30.9
2018-07-20T09:26:32.734Z,30.9
2018-07-20T09:27:22.788Z,31
2018-07-20T09:28:13.055Z,30.9
2018-07-20T09:29:02.343Z,30.9
2018-07-20T09:29:52.959Z,30.9
2018-07-20T09:30:42.010Z,30.9
2018-07-20T09:31:32.794Z,30.9
2018-07-20T09:32:23.194Z,30.9
2018-07-20T09:33:13.234Z,30.9
2018-07-20T09:34:03.702Z,30.9
2018-07-20T09:34:53.369Z,30.9
2018-07-20T09:35:43.409Z,30.9
2018-07-20T09:36:33.192Z,30.9
2018-07-20T09:37:23.273Z,30.9
2018-07-20T09:38:13.048Z,30.9
2018-07-20T09:39:03.449Z,30.9
2018-07-20T09:39:53.518Z,30.9
2018-07-20T09:40:43.794Z,30.9
2018-07-20T09:41:33.565Z,30.9
2018-07-20T09:42:23.371Z,30.9
2018-07-20T09:43:14.003Z,30.9
2018-07-20T09:44:04.319Z,30.9
2018-07-20T09:44:54.080Z,30.9
2018-07-20T09:45:44.186Z,30.9
2018-07-20T09:46:34.231Z,30.9
2018-07-20T09:47:24.036Z,30.9
2018-07-20T09:48:14.384Z,30.9
2018-07-20T09:49:05.645Z,30.9
2018-07-20T09:49:54.292Z,30.9
2018-07-20T09:50:44.547Z,30.9
2018-07-20T09:51:34.090Z,30.9
2018-07-20T09:52:24.672Z,30.9
2018-07-20T09:53:14.477Z,30.9
2018-07-20T09:54:04.281Z,30.9
2018-07-20T09:54:54.600Z,30.9
2018-07-20T09:55:44.681Z,30.9
2018-07-20T09:56:35.028Z,30.9
2018-07-20T09:57:24.536Z,30.9
2018-07-20T09:58:14.366Z,30.9
2018-07-20T09:59:04.935Z,30.9
2018-07-20T09:59:55.824Z,30.9
2018-07-20T10:00:44.791Z,30.9
2018-07-20T10:01:34.845Z,30.9
2018-07-20T10:02:25.473Z,30.9
2018-07-20T10:03:15.565Z,30.9
2018-07-20T10:04:05.038Z,30.9
2018-07-20T10:04:55.591Z,30.9
2018-07-20T10:05:45.727Z,30.9
2018-07-20T10:06:35.222Z,30.9
2018-07-20T10:07:25.586Z,30.9
2018-07-20T10:08:15.962Z,30.9
2018-07-20T10:09:05.706Z,30.9
2018-07-20T10:09:55.616Z,30.9
2018-07-20T10:10:46.095Z,30.9
2018-07-20T10:11:35.588Z,30.9
2018-07-20T10:12:26.246Z,30.9
2018-07-20T10:13:16.283Z,30.9
2018-07-20T10:14:06.056Z,30.9
2018-07-20T10:14:56.518Z,30.9
2018-07-20T10:15:46.264Z,30.9
2018-07-20T10:16:36.528Z,30.9
2018-07-20T10:17:26.621Z,30.9
2018-07-20T10:18:16.421Z,30.9
2018-07-20T10:19:07.450Z,30.8
2018-07-20T10:19:56.272Z,30.9
2018-07-20T10:20:46.872Z,30.8
2018-07-20T10:21:36.930Z,30.8
2018-07-20T10:22:26.985Z,30.8
2018-07-20T10:23:16.767Z,30.8
2018-07-20T10:24:06.838Z,30.8
2018-07-20T10:24:57.172Z,30.8
2018-07-20T10:25:48.056Z,30.8
2018-07-20T10:26:37.287Z,30.8
2018-07-20T10:27:27.400Z,30.8
2018-07-20T10:28:17.462Z,30.8
2018-07-20T10:29:07.510Z,30.8
2018-07-20T10:29:57.067Z,30.8
2018-07-20T10:30:47.769Z,30.8
2018-07-20T10:31:37.682Z,30.8
2018-07-20T10:32:27.744Z,30.8
2018-07-20T10:33:17.564Z,30.8
2018-07-20T10:34:07.343Z,30.8
2018-07-20T10:34:57.964Z,30.8
2018-07-20T10:35:47.536Z,30.8
2018-07-20T10:36:37.908Z,30.8
2018-07-20T10:37:28.207Z,30.8
2018-07-20T10:38:17.943Z,30.8
2018-07-20T10:39:08.292Z,30.8
2018-07-20T10:39:58.349Z,30.8
2018-07-20T10:40:48.446Z,30.8
2018-07-20T10:41:38.209Z,30.8
2018-07-20T10:42:28.530Z,30.8
2018-07-20T10:43:18.967Z,30.8
2018-07-20T10:44:08.694Z,30.8
2018-07-20T10:44:58.728Z,30.8
2018-07-20T10:45:48.802Z,30.8
2018-07-20T10:46:38.049Z,30.8
2018-07-20T10:47:28.401Z,30.8
2018-07-20T10:48:18.774Z,30.8
2018-07-20T10:49:08.790Z,30.8
2018-07-20T10:49:58.610Z,30.8
2018-07-20T10:50:48.765Z,30.8
2018-07-20T10:51:38.710Z,30.8
2018-07-20T10:52:29.039Z,30.8
2018-07-20T10:53:19.360Z,30.8
2018-07-20T10:54:09.480Z,30.8
2018-07-20T10:54:59.283Z,30.8
2018-07-20T10:55:49.300Z,30.8
2018-07-20T10:56:39.082Z,30.8
2018-07-20T10:57:29.696Z,30.8
2018-07-20T10:58:19.749Z,30.8
2018-07-20T10:59:09.296Z,30.8
2018-07-20T10:59:59.046Z,30.8
2018-07-20T11:00:49.981Z,30.8
2018-07-20T11:01:40.773Z,30.8
2018-07-20T11:02:30.069Z,30.8
2018-07-20T11:03:19.587Z,30.8
2018-07-20T11:04:10.191Z,30.8
2018-07-20T11:04:59.706Z,30.8
2018-07-20T11:05:50.089Z,30.8
2018-07-20T11:06:40.382Z,30.8
2018-07-20T11:07:30.196Z,30.7
2018-07-20T11:08:20.534Z,30.7
2018-07-20T11:09:10.566Z,30.7
2018-07-20T11:10:00.658Z,30.7
2018-07-20T11:10:50.728Z,30.7